Time;durP1;ratioP1;P1;durP2;ratioP2;P2;SDS_P1;SDS_P2;PMS_P1;PMS_P2;Temp;Humidity;BMP_temperature;BMP_pressure;BME280_temperature;BME280_humidity;BME280_pressure;Samples;Min_cycle;Max_cycle;Signal;HPM_P1;HPM_P2
2021/05/27 00:01:50;;;;;;;8.23;3.63;;;;;;;12.46;88.69;100764.50;5014424;28;20032;-88
2021/05/27 00:04:16;;;;;;;7.15;3.80;;;;;;;12.44;88.69;100766.41;5022316;28;20038;-88
2021/05/27 00:06:41;;;;;;;11.40;4.05;;;;;;;12.44;89.06;100758.50;5034242;28;20036;-87
2021/05/27 00:09:06;;;;;;;7.72;3.38;;;;;;;12.44;88.38;100772.53;5016924;28;20022;-88
2021/05/27 00:11:32;;;;;;;6.50;3.53;;;;;;;12.44;87.66;100766.41;5014351;28;20030;-88
2021/05/27 00:13:58;;;;;;;9.10;3.55;;;;;;;12.39;88.66;100763.28;5014279;28;20018;-88
2021/05/27 00:16:23;;;;;;;7.60;3.28;;;;;;;12.40;89.56;100775.47;5014152;28;20060;-88
2021/05/27 00:18:52;;;;;;;8.57;3.78;;;;;;;12.42;89.47;100769.19;5014178;28;20034;-88
2021/05/27 00:21:21;;;;;;;9.65;3.53;;;;;;;12.49;89.60;100773.03;5024281;28;20036;-87
2021/05/27 00:23:47;;;;;;;5.07;2.88;;;;;;;12.58;89.33;100768.94;5034058;28;20033;-87
2021/05/27 00:26:12;;;;;;;8.48;4.03;;;;;;;12.58;89.75;100771.56;5033846;28;20029;-87
2021/05/27 00:28:37;;;;;;;4.22;3.30;;;;;;;12.50;90.78;100771.28;5020749;28;20467;-87
2021/05/27 00:31:04;;;;;;;14.95;5.03;;;;;;;12.60;90.52;100772.31;5013962;28;20383;-87
2021/05/27 00:33:29;;;;;;;7.28;3.28;;;;;;;12.65;89.78;100775.44;5014473;28;20388;-87
2021/05/27 00:35:54;;;;;;;7.07;4.20;;;;;;;12.64;88.73;100779.03;5033763;28;20022;-87
2021/05/27 00:38:20;;;;;;;6.22;3.65;;;;;;;12.64;89.34;100786.94;5016350;28;20594;-87
2021/05/27 00:40:45;;;;;;;6.78;3.67;;;;;;;12.65;89.42;100783.34;5013784;28;20080;-87
2021/05/27 00:43:10;;;;;;;7.97;3.63;;;;;;;12.62;89.64;100786.22;5013934;28;20076;-87
2021/05/27 00:45:36;;;;;;;8.45;3.08;;;;;;;12.53;89.99;100786.84;5014028;28;20108;-87
2021/05/27 00:48:01;;;;;;;6.00;3.50;;;;;;;12.56;89.51;100789.28;5013540;28;20032;-87
2021/05/27 00:50:27;;;;;;;10.25;3.70;;;;;;;12.54;88.70;100785.06;5013674;28;20076;-87
2021/05/27 00:52:56;;;;;;;7.75;3.03;;;;;;;12.55;89.40;100789.38;5014582;28;20026;-87
2021/05/27 00:55:24;;;;;;;5.95;3.35;;;;;;;12.55;89.26;100795.47;5013576;28;20144;-87
2021/05/27 00:57:50;;;;;;;8.77;3.65;;;;;;;12.40;90.49;100797.41;5013267;28;20021;-87
2021/05/27 01:00:18;;;;;;;7.13;3.25;;;;;;;12.40;88.57;100797.41;5014425;28;20026;-87
2021/05/27 01:02:44;;;;;;;5.28;2.85;;;;;;;12.39;88.96;100797.50;5013492;28;20037;-87
2021/05/27 01:05:12;;;;;;;4.95;3.28;;;;;;;12.40;87.17;100794.78;5013394;28;20030;-87
2021/05/27 01:07:37;;;;;;;4.13;2.72;;;;;;;12.40;87.10;100796.53;5013140;28;20045;-87
2021/05/27 01:10:09;;;;;;;6.38;2.90;;;;;;;12.34;87.63;100796.97;5013030;28;20022;-87
2021/05/27 01:12:35;;;;;;;4.10;3.08;;;;;;;12.30;87.03;100797.19;5013188;28;20057;-87
2021/05/27 01:17:44;;;;;;;7.72;4.07;;;;;;;12.24;86.87;100794.13;4994029;28;20037;-87
2021/05/27 01:20:11;;;;;;;7.47;4.30;;;;;;;12.17;87.47;100796.34;5013006;28;20030;-87
2021/05/27 01:22:37;;;;;;;8.60;4.15;;;;;;;12.22;87.81;100794.25;5013289;28;20030;-87
2021/05/27 01:25:06;;;;;;;6.05;3.30;;;;;;;12.18;86.97;100791.91;5012802;28;20480;-87
2021/05/27 01:27:31;;;;;;;5.20;3.20;;;;;;;12.00;88.38;100794.03;5021268;28;20059;-86
2021/05/27 01:29:57;;;;;;;6.05;3.47;;;;;;;12.06;87.23;100793.59;5012910;28;20073;-87
2021/05/27 01:32:22;;;;;;;5.95;2.78;;;;;;;12.02;86.70;100794.75;5013121;28;20022;-86
2021/05/27 01:34:48;;;;;;;5.93;4.03;;;;;;;11.92;87.12;100785.81;5012856;28;20049;-86
2021/05/27 01:37:14;;;;;;;4.97;3.25;;;;;;;11.88;87.57;100790.41;5012954;28;20018;-87
2021/05/27 01:39:46;;;;;;;5.60;3.03;;;;;;;11.99;88.18;100792.34;5012668;28;20025;-87
2021/05/27 01:42:12;;;;;;;4.95;2.97;;;;;;;11.97;87.83;100794.25;5013681;28;20026;-86
2021/05/27 01:44:38;;;;;;;6.55;3.20;;;;;;;11.99;88.27;100794.97;5012899;28;20022;-86
2021/05/27 01:47:03;;;;;;;9.50;3.75;;;;;;;11.89;88.90;100795.59;5012737;28;20118;-87
2021/05/27 01:49:28;;;;;;;6.10;3.45;;;;;;;11.81;88.96;100797.88;5012261;28;20097;-87
2021/05/27 01:51:54;;;;;;;5.10;3.55;;;;;;;11.77;88.72;100793.75;5012100;28;20036;-86
2021/05/27 01:54:19;;;;;;;6.68;4.03;;;;;;;11.74;88.74;100791.31;5013793;28;20460;-86
2021/05/27 01:56:44;;;;;;;5.75;3.65;;;;;;;11.77;88.62;100792.91;5012694;28;20072;-86
2021/05/27 01:59:10;;;;;;;7.82;3.70;;;;;;;11.71;87.21;100788.91;5012514;28;20026;-86
2021/05/27 02:01:36;;;;;;;6.30;3.63;;;;;;;11.66;88.03;100798.88;5012416;28;20480;-86
2021/05/27 02:04:02;;;;;;;4.90;3.20;;;;;;;11.59;88.34;100794.97;5030450;28;20113;-86
2021/05/27 02:06:27;;;;;;;6.32;4.10;;;;;;;11.56;87.77;100803.06;5032091;28;20048;-86
2021/05/27 02:09:10;;;;;;;12.30;4.47;;;;;;;11.46;87.65;100803.66;5025153;28;20109;-86
2021/05/27 02:11:38;;;;;;;9.00;4.30;;;;;;;11.44;89.79;100802.09;5012434;28;20053;-86
2021/05/27 02:14:08;;;;;;;5.80;3.80;;;;;;;11.42;90.16;100794.28;5012260;28;20029;-86
2021/05/27 02:16:34;;;;;;;8.57;4.28;;;;;;;11.36;89.87;100801.75;5012058;28;20189;-86
2021/05/27 02:19:00;;;;;;;9.10;4.28;;;;;;;11.39;90.28;100799.72;5020072;28;20034;-86
2021/05/27 02:21:26;;;;;;;9.20;4.38;;;;;;;11.40;89.71;100796.19;5012271;28;20034;-86
2021/05/27 02:23:55;;;;;;;8.25;4.90;;;;;;;11.32;90.75;100798.47;5012270;28;20030;-86
2021/05/27 02:26:21;;;;;;;8.50;4.32;;;;;;;11.19;90.69;100802.81;5011853;28;20061;-86
2021/05/27 02:28:47;;;;;;;8.52;4.82;;;;;;;10.98;90.86;100811.13;5012123;28;20022;-86
2021/05/27 02:31:13;;;;;;;7.45;4.72;;;;;;;11.01;92.25;100815.34;5012685;28;20026;-86
2021/05/27 02:33:38;;;;;;;10.63;6.07;;;;;;;10.94;90.95;100807.03;5023270;28;20025;-86
2021/05/27 02:36:05;;;;;;;6.95;4.60;;;;;;;10.98;92.66;100816.41;5030101;28;20498;-86
2021/05/27 02:38:30;;;;;;;10.52;4.55;;;;;;;10.97;91.65;100813.84;5030585;28;20052;-86
2021/05/27 02:40:56;;;;;;;7.05;4.30;;;;;;;10.97;91.83;100814.69;5011993;28;20116;-86
2021/05/27 02:43:21;;;;;;;7.53;3.63;;;;;;;10.97;92.64;100809.44;5012150;28;20022;-86
2021/05/27 02:45:46;;;;;;;7.82;4.10;;;;;;;11.05;92.74;100814.22;5012175;28;20021;-86
2021/05/27 02:48:12;;;;;;;9.52;4.82;;;;;;;11.07;91.56;100814.97;5012393;28;20038;-86
2021/05/27 02:50:37;;;;;;;9.65;4.45;;;;;;;11.08;91.77;100821.91;5012329;28;20037;-86
2021/05/27 02:53:03;;;;;;;14.50;4.55;;;;;;;11.05;90.74;100828.19;5012146;28;20030;-86
2021/05/27 02:55:28;;;;;;;5.65;4.35;;;;;;;11.09;90.57;100824.41;5011978;28;20029;-86
2021/05/27 02:57:53;;;;;;;22.17;4.25;;;;;;;11.05;91.02;100829.97;5012013;28;20065;-86
2021/05/27 03:00:19;;;;;;;10.25;4.63;;;;;;;11.20;90.08;100825.56;5011757;28;20511;-86
2021/05/27 03:02:44;;;;;;;8.68;4.78;;;;;;;11.01;91.33;100826.69;5022558;28;20094;-86
2021/05/27 03:05:10;;;;;;;14.07;4.63;;;;;;;11.09;91.01;100829.69;5035320;28;20372;-86
2021/05/27 03:07:35;;;;;;;8.02;4.25;;;;;;;11.14;91.72;100831.16;5035332;28;20430;-86
2021/05/27 03:10:01;;;;;;;7.72;4.53;;;;;;;11.19;90.76;100826.47;5025894;28;20461;-86
2021/05/27 03:12:26;;;;;;;7.88;4.70;;;;;;;11.18;89.94;100825.63;5015855;28;20467;-86
2021/05/27 03:14:51;;;;;;;9.18;4.28;;;;;;;11.20;89.80;100830.81;5015392;28;20560;-86
2021/05/27 03:17:17;;;;;;;10.60;4.03;;;;;;;11.26;89.49;100839.13;5015886;28;20503;-86
2021/05/27 03:19:42;;;;;;;7.60;4.43;;;;;;;11.20;88.94;100839.53;5015333;28;20361;-86
2021/05/27 03:22:07;;;;;;;4.50;3.83;;;;;;;11.19;89.30;100837.81;5015446;28;20022;-86
2021/05/27 03:24:33;;;;;;;8.52;5.07;;;;;;;11.17;89.31;100841.50;5015726;28;20022;-86
2021/05/27 03:26:58;;;;;;;9.43;3.83;;;;;;;11.15;89.27;100838.97;5015505;28;20044;-86
2021/05/27 03:29:23;;;;;;;8.15;4.85;;;;;;;11.15;89.14;100844.22;5015568;28;20026;-86
2021/05/27 03:31:49;;;;;;;7.07;3.97;;;;;;;11.19;89.23;100839.63;5019124;28;20021;-86
2021/05/27 03:34:14;;;;;;;8.15;3.83;;;;;;;11.18;89.33;100841.41;5035284;28;20121;-86
2021/05/27 03:36:39;;;;;;;6.65;4.00;;;;;;;11.19;89.25;100834.34;5018922;28;20041;-86
2021/05/27 03:39:06;;;;;;;6.35;4.50;;;;;;;11.21;88.85;100843.81;5034576;28;20028;-86
2021/05/27 03:41:31;;;;;;;9.48;4.13;;;;;;;11.17;88.90;100852.00;5015446;28;20573;-86
2021/05/27 03:43:57;;;;;;;4.88;4.20;;;;;;;11.18;88.13;100849.28;5015417;28;20038;-86
2021/05/27 03:46:22;;;;;;;7.05;4.45;;;;;;;11.14;88.09;100852.19;5015720;28;20065;-86
2021/05/27 03:48:47;;;;;;;13.02;6.55;;;;;;;11.14;88.90;100841.69;5015748;28;20033;-86
2021/05/27 03:51:13;;;;;;;6.78;3.90;;;;;;;11.13;89.08;100853.16;5031812;28;20022;-86
2021/05/27 03:53:39;;;;;;;7.30;4.32;;;;;;;10.99;89.24;100841.72;5035044;28;20044;-86
2021/05/27 03:56:05;;;;;;;11.00;4.57;;;;;;;11.01;89.80;100852.97;5035037;28;20087;-86
2021/05/27 04:01:14;;;;;;;6.68;4.95;;;;;;;11.01;89.47;100852.13;5016435;28;20665;-86
2021/05/27 04:09:08;;;;;;;8.70;4.97;;;;;;;10.96;88.83;100849.81;5016143;28;20379;-86
2021/05/27 04:11:33;;;;;;;8.35;4.80;;;;;;;10.93;89.70;100843.91;5014265;28;20029;-86
2021/05/27 04:13:58;;;;;;;8.68;5.38;;;;;;;10.89;90.59;100848.50;5013493;28;20057;-85
2021/05/27 04:16:24;;;;;;;7.40;5.55;;;;;;;10.94;89.64;100849.06;5014673;28;20033;-86
2021/05/27 04:18:49;;;;;;;8.63;5.03;;;;;;;10.90;90.35;100844.94;5014515;28;20037;-86
2021/05/27 04:21:17;;;;;;;6.88;4.85;;;;;;;10.95;90.90;100847.28;5014280;28;20040;-86
2021/05/27 04:23:42;;;;;;;7.18;5.40;;;;;;;10.85;91.31;100853.09;5014221;28;20076;-86
2021/05/27 04:26:11;;;;;;;9.13;5.40;;;;;;;10.85;91.27;100858.34;5014441;28;20022;-86
2021/05/27 04:28:37;;;;;;;8.65;5.20;;;;;;;10.80;90.96;100851.69;5014707;28;20056;-86
2021/05/27 04:31:11;;;;;;;13.85;5.65;;;;;;;10.84;90.59;100855.78;5013947;28;20669;-86
2021/05/27 04:33:38;;;;;;;7.75;4.72;;;;;;;10.85;90.32;100860.13;5014209;28;20030;-86
2021/05/27 04:36:04;;;;;;;8.15;4.90;;;;;;;10.82;90.83;100858.53;5014313;28;20025;-86
2021/05/27 04:38:29;;;;;;;7.53;5.32;;;;;;;10.83;90.78;100854.97;5014968;28;20025;-86
2021/05/27 04:40:55;;;;;;;11.93;6.30;;;;;;;10.80;91.27;100865.69;5020585;28;20072;-86
2021/05/27 04:43:20;;;;;;;10.70;5.63;;;;;;;10.71;92.41;100863.59;5014350;28;20041;-86
2021/05/27 04:45:46;;;;;;;7.10;5.45;;;;;;;10.76;91.67;100868.56;5014194;28;20113;-85
2021/05/27 04:48:13;;;;;;;10.63;5.47;;;;;;;10.72;92.25;100867.91;5014136;28;20038;-86
2021/05/27 04:50:40;;;;;;;11.48;6.03;;;;;;;10.67;92.62;100862.94;5013615;28;20125;-86
2021/05/27 04:53:06;;;;;;;10.50;5.68;;;;;;;10.68;91.62;100859.41;5013934;28;20022;-86
2021/05/27 04:55:31;;;;;;;10.98;5.68;;;;;;;10.68;92.77;100864.66;5014900;28;20030;-86
2021/05/27 04:57:57;;;;;;;10.20;5.55;;;;;;;10.80;92.17;100859.56;5014130;28;20025;-86
2021/05/27 05:00:24;;;;;;;7.00;4.80;;;;;;;10.86;91.92;100869.69;5013692;28;20026;-86
2021/05/27 05:02:51;;;;;;;8.50;5.28;;;;;;;10.86;91.87;100865.28;5013735;28;20086;-86
2021/05/27 05:05:16;;;;;;;9.43;5.72;;;;;;;10.85;91.79;100862.75;5013740;28;20097;-86
2021/05/27 05:07:43;;;;;;;7.65;5.38;;;;;;;10.84;91.79;100866.31;5013953;28;20033;-85
2021/05/27 05:10:11;;;;;;;10.18;5.43;;;;;;;10.88;92.82;100870.44;5023277;28;20032;-85
2021/05/27 05:12:46;;;;;;;13.05;5.93;;;;;;;10.92;92.98;100869.34;5013727;28;20026;-86
2021/05/27 05:15:16;;;;;;;11.18;4.93;;;;;;;11.13;92.50;100866.28;5013761;28;20037;-86
2021/05/27 05:17:42;;;;;;;8.50;5.47;;;;;;;11.11;92.17;100869.84;5017149;28;20021;-85
2021/05/27 05:20:09;;;;;;;9.02;6.32;;;;;;;11.27;92.11;100869.72;5030779;28;20022;-86
2021/05/27 05:22:34;;;;;;;11.35;6.38;;;;;;;11.33;92.11;100871.13;5013621;28;20030;-85
2021/05/27 05:25:00;;;;;;;12.15;6.60;;;;;;;11.31;92.55;100876.50;5013455;28;20044;-86
2021/05/27 05:27:26;;;;;;;8.80;6.45;;;;;;;11.28;92.51;100875.84;5013481;28;20423;-86
2021/05/27 05:29:51;;;;;;;6.55;4.95;;;;;;;11.30;93.15;100874.78;5013626;28;20086;-85
2021/05/27 05:32:16;;;;;;;9.55;5.13;;;;;;;11.34;93.85;100867.56;5013484;28;20109;-85
2021/05/27 05:34:42;;;;;;;9.75;5.35;;;;;;;11.42;93.13;100872.34;5014895;28;20199;-85
2021/05/27 05:37:07;;;;;;;13.48;5.97;;;;;;;11.56;92.11;100874.06;5013309;28;20018;-85
2021/05/27 05:39:32;;;;;;;12.32;5.93;;;;;;;11.62;91.62;100873.69;5013756;28;20030;-86
2021/05/27 05:41:58;;;;;;;10.05;5.93;;;;;;;11.75;91.05;100879.84;5013692;28;20022;-85
2021/05/27 05:44:23;;;;;;;8.98;6.28;;;;;;;11.81;90.90;100884.69;5013650;28;20056;-85
2021/05/27 05:46:49;;;;;;;10.75;7.05;;;;;;;11.83;90.68;100882.81;5013462;28;20399;-85
2021/05/27 05:49:14;;;;;;;9.23;7.07;;;;;;;11.89;90.72;100882.44;5016136;28;20057;-85
2021/05/27 05:51:39;;;;;;;11.77;6.50;;;;;;;11.79;91.75;100883.09;5016356;28;20029;-85
2021/05/27 05:54:05;;;;;;;11.70;7.32;;;;;;;11.76;92.68;100881.50;5013529;28;20022;-85
2021/05/27 05:56:30;;;;;;;8.73;6.50;;;;;;;11.99;91.20;100890.56;5013413;28;20050;-85
2021/05/27 05:58:56;;;;;;;8.70;6.68;;;;;;;12.03;90.92;100883.31;5013335;28;20060;-85
2021/05/27 06:01:21;;;;;;;7.82;5.72;;;;;;;12.18;91.21;100894.59;5012973;28;20379;-85
2021/05/27 06:03:47;;;;;;;11.80;7.18;;;;;;;12.23;90.87;100900.41;5013737;28;20037;-85
2021/05/27 06:06:12;;;;;;;12.13;8.00;;;;;;;12.39;91.07;100905.47;5025011;28;20057;-85
2021/05/27 06:08:37;;;;;;;10.27;8.07;;;;;;;12.58;92.50;100899.78;5033464;28;20064;-85
2021/05/27 06:11:03;;;;;;;16.80;8.50;;;;;;;13.29;91.37;100901.00;5025254;28;20026;-86
2021/05/27 06:13:29;;;;;;;19.50;9.95;;;;;;;13.79;92.06;100893.03;5014837;28;20460;-86
2021/05/27 06:15:54;;;;;;;11.65;8.90;;;;;;;14.78;88.64;100897.84;5015599;28;20036;-86
2021/05/27 06:18:20;;;;;;;10.57;6.97;;;;;;;15.31;84.00;100897.22;5014341;28;20018;-86
2021/05/27 06:20:45;;;;;;;10.60;6.53;;;;;;;16.01;82.18;100895.09;5012781;28;20017;-86
2021/05/27 06:23:10;;;;;;;13.18;7.05;;;;;;;16.61;76.36;100893.56;5012767;28;20091;-86
2021/05/27 06:25:37;;;;;;;11.60;5.03;;;;;;;17.40;71.71;100902.69;5012588;28;20018;-86
2021/05/27 06:28:03;;;;;;;11.05;5.70;;;;;;;17.98;70.89;100896.63;5013246;28;20071;-86
2021/05/27 06:30:29;;;;;;;7.43;4.85;;;;;;;18.68;65.70;100909.63;5013956;28;20030;-87
2021/05/27 06:32:55;;;;;;;10.25;5.47;;;;;;;19.40;63.58;100911.59;5017632;28;20054;-88
2021/05/27 06:35:21;;;;;;;14.00;4.90;;;;;;;20.02;59.89;100916.22;5013604;28;20476;-87
2021/05/27 06:37:47;;;;;;;6.63;3.45;;;;;;;20.96;58.86;100909.38;5017211;28;20026;-87
2021/05/27 06:40:18;;;;;;;8.45;4.82;;;;;;;21.36;54.44;100910.53;5018118;28;20033;-84
2021/05/27 06:42:44;;;;;;;7.45;4.20;;;;;;;21.84;52.48;100916.16;5020015;28;20029;-89
2021/05/27 06:45:11;;;;;;;8.20;4.10;;;;;;;22.38;50.80;100911.19;5003986;28;20555;-85
2021/05/27 06:47:36;;;;;;;6.50;3.40;;;;;;;22.64;50.16;100921.66;5012808;28;20057;-85
2021/05/27 06:50:03;;;;;;;8.57;3.95;;;;;;;23.02;47.40;100907.66;5003869;28;20037;-85
2021/05/27 06:52:28;;;;;;;6.38;3.17;;;;;;;23.12;47.86;100917.22;5016149;28;20571;-86
2021/05/27 06:54:54;;;;;;;10.02;3.10;;;;;;;;;;5017534;28;20068;-86
2021/05/27 06:57:19;;;;;;;5.88;3.00;;;;;;;23.85;46.00;100920.47;5016734;28;20026;-86
2021/05/27 06:59:45;;;;;;;4.72;2.65;;;;;;;24.50;44.04;100919.13;5015769;28;20034;-86
2021/05/27 07:02:10;;;;;;;6.60;3.30;;;;;;;24.76;40.88;100927.75;5017236;28;20113;-86
2021/05/27 07:04:36;;;;;;;4.90;2.80;;;;;;;25.25;41.24;100919.13;5016816;28;20070;-86
2021/05/27 07:07:01;;;;;;;9.68;3.67;;;;;;;25.52;39.81;100928.34;5016917;28;20021;-86
2021/05/27 07:09:27;;;;;;;4.28;2.60;;;;;;;25.73;40.55;100931.06;5027184;28;20021;-86
2021/05/27 07:11:52;;;;;;;6.20;3.03;;;;;;;25.78;37.83;100927.78;5027853;28;20028;-86
2021/05/27 07:14:17;;;;;;;5.75;2.92;;;;;;;26.04;39.06;100937.16;5019559;28;20026;-86
2021/05/27 07:16:43;;;;;;;6.53;3.08;;;;;;;26.34;37.64;100927.06;5023484;28;20117;-86
2021/05/27 07:19:08;;;;;;;6.45;3.00;;;;;;;26.59;38.31;100932.03;5020170;28;20060;-86
2021/05/27 07:21:34;;;;;;;4.85;2.85;;;;;;;26.70;36.93;100926.94;5022714;28;20460;-86
2021/05/27 07:23:59;;;;;;;11.05;3.78;;;;;;;26.80;37.35;100931.97;5015177;28;20088;-86
2021/05/27 07:26:25;;;;;;;5.55;2.90;;;;;;;27.16;37.35;100927.38;5012707;28;20022;-86
2021/05/27 07:28:51;;;;;;;7.63;2.95;;;;;;;27.57;37.35;100937.28;5030608;28;20116;-86
2021/05/27 07:31:16;;;;;;;6.78;3.10;;;;;;;27.69;35.77;100933.78;5019344;28;20117;-86
2021/05/27 07:33:42;;;;;;;8.65;3.08;;;;;;;27.80;35.80;100935.03;5026137;28;20079;-86
2021/05/27 07:36:07;;;;;;;5.35;3.30;;;;;;;27.62;37.30;100946.44;5029299;28;20040;-86
2021/05/27 07:38:33;;;;;;;7.07;2.80;;;;;;;27.82;34.90;100937.53;5024772;28;20021;-86
2021/05/27 07:40:59;;;;;;;46.97;7.45;;;;;;;27.93;35.98;100936.16;5019459;28;20026;-87
2021/05/27 07:43:24;;;;;;;9.15;2.40;;;;;;;28.34;35.90;100941.34;5023054;28;20106;-87
2021/05/27 07:45:50;;;;;;;6.72;3.65;;;;;;;28.80;35.03;100937.78;5018781;28;20023;-87
2021/05/27 07:48:15;;;;;;;9.25;3.58;;;;;;;28.62;34.25;100951.13;5025727;28;20045;-87
2021/05/27 07:50:41;;;;;;;7.47;2.45;;;;;;;28.72;34.50;100946.13;5018077;28;20149;-86
2021/05/27 07:53:08;;;;;;;7.55;2.55;;;;;;;29.31;32.81;100940.75;5019530;28;20025;-87
2021/05/27 07:55:34;;;;;;;21.67;3.85;;;;;;;29.20;33.13;100945.78;5035585;28;20021;-87
2021/05/27 07:58:00;;;;;;;7.57;2.78;;;;;;;29.56;32.75;100936.25;5035255;28;20029;-87
2021/05/27 08:00:25;;;;;;;5.80;2.78;;;;;;;29.71;32.59;100932.41;5035017;28;20080;-87
2021/05/27 08:02:50;;;;;;;6.10;2.58;;;;;;;29.62;31.74;100940.78;5017759;28;20026;-87
2021/05/27 08:05:17;;;;;;;8.80;3.00;;;;;;;29.10;31.74;100939.97;5015763;28;20539;-87
2021/05/27 08:07:43;;;;;;;11.82;2.60;;;;;;;29.23;31.72;100937.25;5023254;28;20490;-87
2021/05/27 08:10:09;;;;;;;8.43;3.17;;;;;;;29.48;32.16;100936.47;5034864;28;20037;-86
2021/05/27 08:12:36;;;;;;;5.60;2.42;;;;;;;29.94;32.71;100938.13;5034757;28;20456;-87
2021/05/27 08:15:01;;;;;;;5.93;1.83;;;;;;;30.42;30.97;100939.41;5034877;28;20057;-87
2021/05/27 08:17:27;;;;;;;7.95;2.40;;;;;;;30.52;30.87;100938.91;5033306;28;20111;-87
2021/05/27 08:19:52;;;;;;;6.95;2.83;;;;;;;30.72;30.46;100942.22;5018109;28;20030;-87
2021/05/27 08:22:18;;;;;;;7.75;2.30;;;;;;;30.61;30.67;100941.09;5014573;28;20053;-87
2021/05/27 08:24:44;;;;;;;5.50;2.33;;;;;;;30.71;31.38;100942.44;5014613;28;20030;-87
2021/05/27 08:27:09;;;;;;;5.05;2.10;;;;;;;31.48;30.18;100952.84;5015376;28;20118;-86
2021/05/27 08:29:35;;;;;;;8.63;2.63;;;;;;;31.16;28.94;100934.88;5026112;28;20526;-87
2021/05/27 08:32:00;;;;;;;5.72;1.95;;;;;;;31.57;29.43;100955.00;5014417;28;20084;-87
2021/05/27 08:34:25;;;;;;;7.90;2.25;;;;;;;31.57;29.52;100946.88;5028776;28;20037;-87
2021/05/27 08:36:51;;;;;;;7.13;2.28;;;;;;;31.80;29.25;100946.13;5019595;28;20064;-87
2021/05/27 08:39:18;;;;;;;10.13;2.08;;;;;;;31.85;29.77;100948.13;5029507;28;20032;-87
2021/05/27 08:41:45;;;;;;;9.68;2.33;;;;;;;31.57;29.47;100946.88;5021002;28;20038;-87
2021/05/27 08:44:12;;;;;;;5.70;1.85;;;;;;;31.85;28.29;100947.31;5020013;28;20025;-87
2021/05/27 08:46:37;;;;;;;7.70;2.60;;;;;;;32.07;27.63;100951.19;5016425;28;20026;-87
2021/05/27 08:49:05;;;;;;;21.23;3.78;;;;;;;31.88;28.32;100957.72;5022892;28;20107;-89
2021/05/27 08:51:34;;;;;;;16.90;2.30;;;;;;;31.92;28.44;100959.72;5023262;28;20030;-88
2021/05/27 08:53:59;;;;;;;5.78;2.22;;;;;;;32.19;26.98;100954.72;5021419;28;20052;-88
2021/05/27 08:56:25;;;;;;;9.82;2.67;;;;;;;32.39;27.09;100954.38;5026297;28;20049;-88
2021/05/27 08:58:52;;;;;;;5.32;1.65;;;;;;;32.89;28.16;100961.22;5023468;28;20446;-88
2021/05/27 09:01:22;;;;;;;9.35;2.97;;;;;;;32.85;27.77;100957.34;5022860;28;20073;-88
2021/05/27 09:03:48;;;;;;;12.95;3.10;;;;;;;32.97;27.95;100963.56;5022203;28;20032;-88
2021/05/27 09:06:14;;;;;;;10.90;2.90;;;;;;;32.06;27.72;100948.69;5026333;28;20022;-88
2021/05/27 09:08:39;;;;;;;6.32;2.05;;;;;;;32.85;26.35;100956.50;5014627;28;20155;-89
2021/05/27 09:11:06;;;;;;;7.88;2.05;;;;;;;33.11;25.90;100953.28;5014575;28;20029;-88
2021/05/27 09:13:31;;;;;;;7.40;2.28;;;;;;;32.82;25.69;100956.97;5013235;28;20480;-88
2021/05/27 09:16:11;;;;;;;4.57;1.65;;;;;;;33.23;25.87;100952.41;5013196;28;20050;-88
2021/05/27 09:18:40;;;;;;;4.45;1.95;;;;;;;33.11;26.61;100956.00;5013182;28;20095;-88
2021/05/27 09:21:08;;;;;;;7.28;2.00;;;;;;;32.77;26.27;100944.94;5012919;28;20189;-88
2021/05/27 09:23:36;;;;;;;6.32;2.55;;;;;;;31.27;28.47;100956.88;5012885;28;20075;-88
2021/05/27 09:26:05;;;;;;;10.23;2.15;;;;;;;30.32;29.48;100960.75;5013252;28;20025;-88
2021/05/27 09:28:31;;;;;;;5.00;2.40;;;;;;;29.56;31.34;100957.91;5013112;28;20033;-88
2021/05/27 09:30:59;;;;;;;5.70;2.47;;;;;;;28.51;32.91;100962.56;5012906;28;20026;-87
2021/05/27 09:33:30;;;;;;;8.38;2.10;;;;;;;29.37;33.23;100965.06;5022128;28;20031;-88
2021/05/27 09:36:01;;;;;;;;;;;;;;;30.16;31.20;100960.22;5028628;28;20033;-88
2021/05/27 09:38:27;;;;;;;;;;;;;;;30.86;28.31;100961.06;5016839;28;19959;-88
2021/05/27 09:40:53;;;;;;;4.70;1.90;;;;;;;30.68;30.27;100962.69;5025080;28;19961;-88
2021/05/27 09:43:23;;;;;;;8.00;2.38;;;;;;;30.85;28.79;100962.94;5000150;28;20486;-88
2021/05/27 09:46:01;;;;;;;4.55;2.00;;;;;;;29.98;30.53;100971.81;5004713;28;20026;-88
2021/05/27 09:48:26;;;;;;;3.17;1.45;;;;;;;30.19;29.28;100972.50;5019475;28;20083;-87
2021/05/27 09:50:55;;;;;;;7.00;1.63;;;;;;;30.91;27.02;100978.34;5032936;28;20022;-88
2021/05/27 09:53:27;;;;;;;4.80;1.08;;;;;;;30.96;27.92;100969.53;5020174;28;20117;-88
2021/05/27 09:55:55;;;;;;;119.38;11.25;;;;;;;29.85;26.89;100974.59;4998776;28;20029;-88
2021/05/27 09:58:21;;;;;;;10.43;2.00;;;;;;;29.42;27.62;100973.38;5004475;28;20048;-88
2021/05/27 10:00:48;;;;;;;3.67;0.98;;;;;;;30.21;26.73;100970.38;5010628;28;20472;-87
2021/05/27 10:03:27;;;;;;;4.10;1.08;;;;;;;30.76;26.88;100970.53;5013249;28;20129;-88
2021/05/27 10:05:53;;;;;;;2.45;0.85;;;;;;;30.54;25.98;100964.72;5027693;28;20087;-88
2021/05/27 10:08:22;;;;;;;4.10;1.08;;;;;;;31.32;26.08;100965.13;5029456;28;20037;-87
2021/05/27 10:10:49;;;;;;;5.90;1.30;;;;;;;30.75;25.45;100973.50;5012263;28;20026;-88
2021/05/27 10:13:18;;;;;;;2.03;0.70;;;;;;;31.98;21.13;100969.66;5020878;28;20464;-87
2021/05/27 10:15:45;;;;;;;3.97;0.93;;;;;;;31.85;24.79;100969.84;5021385;28;20075;-88
2021/05/27 10:18:18;;;;;;;4.35;1.20;;;;;;;32.33;24.01;100971.63;5028548;28;20127;-87
2021/05/27 10:20:44;;;;;;;3.97;1.10;;;;;;;32.23;24.59;100968.69;5020502;28;20030;-87
2021/05/27 10:23:10;;;;;;;3.45;1.10;;;;;;;31.66;23.84;100971.81;5011375;28;20488;-87
2021/05/27 10:25:36;;;;;;;2.72;0.90;;;;;;;31.43;24.19;100967.06;5011993;28;20022;-87
2021/05/27 10:28:07;;;;;;;39.70;4.20;;;;;;;32.03;24.40;100965.44;5011916;28;20087;-87
2021/05/27 10:30:38;;;;;;;53.90;5.65;;;;;;;30.06;26.84;100968.03;5011796;28;20032;-88
2021/05/27 10:33:06;;;;;;;;;;;;;;;29.08;26.30;100974.50;5011764;28;20029;-87
2021/05/27 10:36:03;;;;;;;6.70;1.05;;;;;;;30.32;26.99;100967.00;5010537;28;19913;-87
2021/05/27 10:38:37;;;;;;;3.30;1.02;;;;;;;30.29;26.08;100967.41;4992046;28;20088;-87
2021/05/27 10:41:03;;;;;;;4.50;1.02;;;;;;;31.77;24.04;100970.19;4992187;28;20058;-87
2021/05/27 10:43:29;;;;;;;3.22;0.80;;;;;;;31.45;23.46;100973.13;4990917;28;20064;-87
2021/05/27 10:45:57;;;;;;;2.75;0.73;;;;;;;31.75;22.90;100972.31;4992281;28;20073;-87
2021/05/27 10:48:25;;;;;;;6.72;0.70;;;;;;;32.85;21.27;100976.38;4992228;28;20109;-87
2021/05/27 10:53:37;;;;;;;2.70;0.68;;;;;;;32.47;20.93;100982.28;5001322;28;20030;-87
2021/05/27 10:56:08;;;;;;;1.52;0.60;;;;;;;32.91;20.61;100982.75;5011807;28;20026;-87
2021/05/27 11:01:15;;;;;;;4.17;0.80;;;;;;;33.57;19.14;100973.25;5024738;28;20064;-87
2021/05/27 11:03:47;;;;;;;4.13;0.80;;;;;;;32.88;21.72;100975.06;5031556;28;20255;-87
2021/05/27 11:06:33;;;;;;;2.58;0.47;;;;;;;34.16;18.23;100974.84;5028684;28;20056;-88
2021/05/27 11:09:07;;;;;;;1.08;0.70;;;;;;;34.03;18.50;100986.88;5012707;28;20033;-87
2021/05/27 11:11:57;;;;;;;5.03;0.73;;;;;;;34.16;17.35;100983.03;5010371;28;20032;-88
2021/05/27 11:14:39;;;;;;;34.75;3.90;;;;;;;34.77;17.09;100991.34;5022220;28;20506;-87
2021/05/27 11:17:08;;;;;;;2.00;0.38;;;;;;;35.37;15.73;100988.84;5030875;28;20032;-87
2021/05/27 11:19:56;;;;;;;5.40;0.50;;;;;;;34.71;17.26;100984.97;5011779;28;20037;-87
2021/05/27 11:25:08;;;;;;;2.33;0.70;;;;;;;34.22;18.23;100987.47;5015769;28;20030;-87
2021/05/27 11:27:38;;;;;;;2.95;0.70;;;;;;;34.01;17.97;100991.75;5015234;28;20038;-88
2021/05/27 11:30:40;;;;;;;8.55;0.95;;;;;;;33.74;18.79;100992.34;5015048;28;20032;-87
2021/05/27 11:33:21;;;;;;;7.45;1.02;;;;;;;34.44;15.77;100986.72;5015106;28;20030;-87
2021/05/27 11:35:52;;;;;;;1.83;0.70;;;;;;;34.84;16.00;100994.72;5015490;28;20030;-87
2021/05/27 11:38:20;;;;;;;2.85;0.60;;;;;;;34.28;17.28;100986.50;5014961;28;20030;-87
2021/05/27 11:40:54;;;;;;;1.45;0.50;;;;;;;34.89;15.64;100994.75;5014857;28;20049;-89
2021/05/27 11:43:27;;;;;;;2.85;0.77;;;;;;;33.70;17.05;100995.81;5023851;28;20080;-88